createdAt,value
2023-05-12T00:00:59.430Z,98863.53
2023-05-12T00:03:26.582Z,98863.41
2023-05-12T00:05:53.776Z,98854.28
2023-05-12T00:08:20.584Z,98857.88
2023-05-12T00:10:47.193Z,98865.00
2023-05-12T00:13:14.401Z,98862.53
2023-05-12T00:15:41.685Z,98859.63
2023-05-12T00:18:08.401Z,98853.41
2023-05-12T00:20:34.914Z,98859.97
2023-05-12T00:23:01.396Z,98851.91
2023-05-12T00:25:27.810Z,98854.47
2023-05-12T00:27:54.313Z,98860.69
2023-05-12T00:30:21.291Z,98850.38
2023-05-12T00:32:48.211Z,98855.34
2023-05-12T00:35:17.459Z,98851.25
2023-05-12T00:37:44.246Z,98847.69
2023-05-12T00:40:11.152Z,98849.06
2023-05-12T00:42:37.799Z,98842.78
2023-05-12T00:45:05.429Z,98842.34
2023-05-12T00:47:32.296Z,98844.44
2023-05-12T00:49:59.332Z,98837.50
2023-05-12T00:52:27.638Z,98840.44
2023-05-12T00:54:55.556Z,98832.19
2023-05-12T00:57:25.544Z,98830.28
2023-05-12T00:59:52.137Z,98837.22
2023-05-12T01:02:18.813Z,98833.38
2023-05-12T01:04:45.633Z,98828.72
2023-05-12T01:07:21.592Z,98829.25
2023-05-12T01:09:53.240Z,98840.38
2023-05-12T01:12:21.450Z,98831.81
2023-05-12T01:14:49.566Z,98834.59
2023-05-12T01:17:23.862Z,98828.81
2023-05-12T01:19:56.398Z,98827.84
2023-05-12T01:22:25.844Z,98820.78
2023-05-12T01:25:00.900Z,98833.44
2023-05-12T01:27:30.170Z,98829.69
2023-05-12T01:30:02.789Z,98831.63
2023-05-12T01:32:30.534Z,98829.53
2023-05-12T01:34:57.320Z,98824.44
2023-05-12T01:37:26.857Z,98824.88
2023-05-12T01:39:54.508Z,98824.72
2023-05-12T01:42:21.716Z,98835.56
2023-05-12T01:44:48.296Z,98839.25
2023-05-12T01:47:15.845Z,98830.66
2023-05-12T01:49:42.613Z,98830.75
2023-05-12T01:52:09.111Z,98838.31
2023-05-12T01:54:36.010Z,98832.97
2023-05-12T01:57:02.503Z,98838.88
2023-05-12T01:59:29.031Z,98843.56
2023-05-12T02:01:55.701Z,98840.19
2023-05-12T02:04:22.488Z,98839.22
2023-05-12T02:06:48.977Z,98843.03
2023-05-12T02:09:15.447Z,98842.25
2023-05-12T02:11:41.913Z,98839.16
2023-05-12T02:14:08.383Z,98834.75
2023-05-12T02:16:34.914Z,98841.31
2023-05-12T02:19:01.548Z,98841.25
2023-05-12T02:21:28.092Z,98841.69
2023-05-12T02:23:56.108Z,98840.06
2023-05-12T02:26:22.715Z,98841.31
2023-05-12T02:28:49.242Z,98848.44
2023-05-12T02:31:15.764Z,98844.81
2023-05-12T02:33:42.428Z,98846.09
2023-05-12T02:36:09.180Z,98839.28
2023-05-12T02:38:36.279Z,98846.28
2023-05-12T02:41:02.722Z,98847.25
2023-05-12T02:43:29.327Z,98836.19
2023-05-12T02:45:55.867Z,98832.88
2023-05-12T02:48:22.367Z,98850.66
2023-05-12T02:50:48.934Z,98835.09
2023-05-12T02:53:15.464Z,98840.50
2023-05-12T02:55:41.991Z,98841.13
2023-05-12T02:58:08.644Z,98837.16
2023-05-12T03:00:35.381Z,98832.06
2023-05-12T03:03:02.126Z,98839.81
2023-05-12T03:05:28.693Z,98836.31
2023-05-12T03:07:55.293Z,98837.53
2023-05-12T03:10:22.503Z,98834.41
2023-05-12T03:12:49.242Z,98835.69
2023-05-12T03:15:16.013Z,98837.72
2023-05-12T03:17:42.589Z,98837.91
2023-05-12T03:20:09.656Z,98841.22
2023-05-12T03:22:36.457Z,98836.31
2023-05-12T03:25:04.816Z,98843.81
2023-05-12T03:27:32.981Z,98837.72
2023-05-12T03:30:01.119Z,98832.19
2023-05-12T03:32:28.603Z,98835.44
2023-05-12T03:34:55.314Z,98838.59
2023-05-12T03:37:22.143Z,98839.50
2023-05-12T03:39:48.621Z,98834.53
2023-05-12T03:42:15.677Z,98834.38
2023-05-12T03:44:42.603Z,98838.69
2023-05-12T03:47:09.215Z,98838.63
2023-05-12T03:49:35.943Z,98836.97
2023-05-12T03:52:02.434Z,98840.06
2023-05-12T03:54:28.911Z,98837.50
2023-05-12T03:56:55.449Z,98842.94
2023-05-12T03:59:21.984Z,98837.50
2023-05-12T04:01:48.428Z,98832.88
2023-05-12T04:04:14.992Z,98839.13
2023-05-12T04:06:41.540Z,98837.19
2023-05-12T04:09:08.252Z,98836.59
2023-05-12T04:11:34.676Z,98843.75
2023-05-12T04:14:01.194Z,98849.19
2023-05-12T04:16:27.823Z,98851.16
2023-05-12T04:18:54.430Z,98844.22
2023-05-12T04:21:20.971Z,98850.38
2023-05-12T04:23:47.449Z,98850.75
2023-05-12T04:26:13.949Z,98853.34
2023-05-12T04:28:40.472Z,98850.50
2023-05-12T04:31:07.019Z,98858.69
2023-05-12T04:33:33.581Z,98855.91
2023-05-12T04:36:00.201Z,98862.22
2023-05-12T04:38:27.314Z,98867.41
2023-05-12T04:41:01.352Z,98870.84
2023-05-12T04:45:59.816Z,98886.31
2023-05-12T04:48:28.132Z,98888.34
2023-05-12T04:50:54.794Z,98889.69
2023-05-12T04:53:21.371Z,98899.09
2023-05-12T04:55:50.104Z,98898.84
2023-05-12T04:58:16.889Z,98909.81
2023-05-12T05:00:43.924Z,98920.03
2023-05-12T05:03:10.814Z,98916.22
2023-05-12T05:05:37.656Z,98925.00
2023-05-12T05:08:04.173Z,98929.13
2023-05-12T05:10:30.675Z,98924.53
2023-05-12T05:12:57.333Z,98923.47
2023-05-12T05:15:23.833Z,98929.38
2023-05-12T05:17:50.479Z,98929.06
2023-05-12T05:20:17.491Z,98934.06
2023-05-12T05:22:44.036Z,98939.94
2023-05-12T05:25:10.916Z,98941.75
2023-05-12T05:27:38.789Z,98945.97
2023-05-12T05:30:08.975Z,98943.22
2023-05-12T05:32:37.664Z,98953.38
2023-05-12T05:35:04.632Z,98951.91
2023-05-12T05:37:31.209Z,98952.00
2023-05-12T05:39:57.786Z,98946.09
2023-05-12T05:42:24.301Z,98951.09
2023-05-12T05:44:50.805Z,98957.34
2023-05-12T05:47:17.465Z,98957.47
2023-05-12T05:49:44.362Z,98959.09
2023-05-12T05:52:10.851Z,98956.09
2023-05-12T05:54:37.465Z,98960.81
2023-05-12T05:57:04.258Z,98970.81
2023-05-12T05:59:31.033Z,98975.03
2023-05-12T06:01:58.025Z,98961.91
2023-05-12T06:04:24.708Z,98966.78
2023-05-12T06:06:51.497Z,98973.88
2023-05-12T06:09:18.006Z,98971.38
2023-05-12T06:11:44.574Z,98980.88
2023-05-12T06:14:11.648Z,98981.25
2023-05-12T06:16:38.221Z,98986.50
2023-05-12T06:19:04.924Z,98992.25
2023-05-12T06:21:32.203Z,98986.97
2023-05-12T06:23:59.006Z,98999.53
2023-05-12T06:26:25.502Z,99003.44
2023-05-12T06:28:51.978Z,99002.19
2023-05-12T06:31:18.514Z,99004.78
2023-05-12T06:33:45.059Z,99006.47
2023-05-12T06:36:12.276Z,99010.63
2023-05-12T06:38:38.794Z,99010.28
2023-05-12T06:41:05.679Z,99008.56
2023-05-12T06:43:32.265Z,99007.88
2023-05-12T06:45:59.001Z,99020.19
2023-05-12T06:48:25.447Z,99017.19
2023-05-12T06:50:52.554Z,99016.84
2023-05-12T06:53:19.137Z,99023.06
2023-05-12T06:55:46.901Z,99020.03
2023-05-12T06:58:13.391Z,99023.72
2023-05-12T07:00:39.923Z,99019.03
2023-05-12T07:03:09.880Z,99027.97
2023-05-12T07:05:36.930Z,99025.78
2023-05-12T07:08:03.667Z,99037.63
2023-05-12T07:10:30.227Z,99035.91
2023-05-12T07:12:56.768Z,99036.66
2023-05-12T07:15:23.330Z,99035.75
2023-05-12T07:17:50.168Z,99035.91
2023-05-12T07:20:17.055Z,99031.66
2023-05-12T07:22:43.595Z,99039.91
2023-05-12T07:25:10.143Z,99033.53
2023-05-12T07:27:36.704Z,99044.00
2023-05-12T07:30:04.819Z,99047.09
2023-05-12T07:32:31.436Z,99044.88
2023-05-12T07:34:57.967Z,99040.31
2023-05-12T07:37:24.718Z,99044.09
2023-05-12T07:39:51.521Z,99048.69
2023-05-12T07:42:18.077Z,99043.34
2023-05-12T07:44:44.887Z,99047.25
2023-05-12T07:47:11.416Z,99045.13
2023-05-12T07:49:37.870Z,99045.59
2023-05-12T07:52:04.744Z,99050.41
2023-05-12T07:54:32.077Z,99053.41
2023-05-12T07:56:58.602Z,99047.38
2023-05-12T07:59:25.088Z,99044.31
2023-05-12T08:01:51.850Z,99045.38
2023-05-12T08:04:18.513Z,99046.03
2023-05-12T08:06:45.202Z,99050.38
2023-05-12T08:09:11.687Z,99054.69
2023-05-12T08:11:38.200Z,99047.06
2023-05-12T08:14:04.666Z,99053.84
2023-05-12T08:16:31.250Z,99054.25
2023-05-12T08:18:58.811Z,99052.84
2023-05-12T08:21:25.482Z,99060.72
2023-05-12T08:23:51.916Z,99057.94
2023-05-12T08:26:18.328Z,99066.03
2023-05-12T08:28:44.857Z,99060.94
2023-05-12T08:31:12.493Z,99066.03
2023-05-12T08:33:39.350Z,99062.72
2023-05-12T08:36:06.236Z,99071.38
2023-05-12T08:38:33.092Z,99055.56
2023-05-12T08:41:12.891Z,99056.91
2023-05-12T08:43:45.875Z,99063.66
2023-05-12T08:46:13.352Z,99064.56
2023-05-12T08:48:41.443Z,99068.72
2023-05-12T08:51:11.814Z,99070.78
2023-05-12T08:53:42.222Z,99075.53
2023-05-12T08:58:44.802Z,99069.75
2023-05-12T09:01:12.717Z,99066.66
2023-05-12T09:03:39.639Z,99070.38
2023-05-12T09:06:08.513Z,99068.53
2023-05-12T09:08:36.945Z,99077.19
2023-05-12T09:11:04.326Z,99066.00
2023-05-12T09:13:50.897Z,99073.66
2023-05-12T09:16:24.227Z,99074.84
2023-05-12T09:18:56.417Z,99068.03
2023-05-12T09:21:24.404Z,99075.06
2023-05-12T09:24:00.374Z,99068.59
2023-05-12T09:26:28.799Z,99074.66
2023-05-12T09:29:06.799Z,99068.91
2023-05-12T09:31:33.802Z,99077.09
2023-05-12T09:34:02.240Z,99064.41
2023-05-12T09:36:28.750Z,99071.28
2023-05-12T09:39:06.928Z,99064.88
2023-05-12T09:41:36.723Z,99069.91
2023-05-12T09:44:05.203Z,99062.72
2023-05-12T09:46:32.224Z,99061.75
2023-05-12T09:48:59.493Z,99063.50
2023-05-12T09:51:27.237Z,99064.19
2023-05-12T09:53:53.655Z,99059.53
2023-05-12T09:56:21.200Z,99053.63
2023-05-12T09:58:50.054Z,99066.03
2023-05-12T10:01:23.391Z,99059.22
2023-05-12T10:03:55.670Z,99063.53
2023-05-12T10:06:28.585Z,99062.22
2023-05-12T10:09:11.594Z,99064.06
2023-05-12T10:11:38.627Z,99053.44
2023-05-12T10:14:09.518Z,99048.63
2023-05-12T10:16:36.768Z,99053.63
2023-05-12T10:19:04.383Z,99055.03
2023-05-12T10:21:32.413Z,99048.63
2023-05-12T10:24:00.584Z,99052.13
2023-05-12T10:26:27.769Z,99049.03
2023-05-12T10:28:55.425Z,99057.34
2023-05-12T10:31:23.913Z,99052.13
2023-05-12T10:33:58.698Z,99049.41
2023-05-12T10:36:25.840Z,99050.63
2023-05-12T10:38:53.288Z,99047.94
2023-05-12T10:41:36.158Z,99045.66
2023-05-12T10:44:02.783Z,99048.66
2023-05-12T10:46:30.382Z,99052.66
2023-05-12T10:49:00.640Z,99062.97
2023-05-12T10:51:31.093Z,99051.34
2023-05-12T10:54:03.637Z,99054.66
2023-05-12T10:56:44.889Z,99040.91
2023-05-12T10:59:18.862Z,99038.28
2023-05-12T11:02:16.835Z,99043.03
2023-05-12T11:05:04.396Z,99054.63
2023-05-12T11:07:35.248Z,99050.28
2023-05-12T11:10:05.895Z,99049.09
2023-05-12T11:12:37.212Z,99062.03
2023-05-12T11:15:06.770Z,99062.69
2023-05-12T11:17:34.016Z,99059.97
2023-05-12T11:20:01.346Z,99072.22
2023-05-12T11:22:28.799Z,99063.84
2023-05-12T11:24:55.578Z,99067.97
2023-05-12T11:27:23.971Z,99065.19
2023-05-12T11:30:02.496Z,99070.88
2023-05-12T11:32:30.133Z,99069.53
2023-05-12T11:35:09.635Z,99067.13
2023-05-12T11:37:39.166Z,99060.41
2023-05-12T11:40:19.015Z,99053.75
2023-05-12T11:42:49.063Z,99063.59
2023-05-12T11:45:28.449Z,99057.81
2023-05-12T11:48:07.712Z,99055.75
2023-05-12T11:50:39.946Z,99061.59
2023-05-12T11:53:14.456Z,99064.78
2023-05-12T11:55:53.361Z,99056.13
2023-05-12T11:58:26.485Z,99056.91
2023-05-12T12:00:54.838Z,99059.47
2023-05-12T12:03:21.650Z,99067.00
2023-05-12T12:06:06.687Z,99063.84
2023-05-12T12:08:33.929Z,99070.56
2023-05-12T12:11:03.419Z,99081.94
2023-05-12T12:13:30.152Z,99098.69
2023-05-12T12:15:56.998Z,99096.72
2023-05-12T12:18:23.521Z,99097.53
2023-05-12T12:20:50.104Z,99091.03
2023-05-12T12:23:16.590Z,99086.56
2023-05-12T12:25:43.655Z,99087.25
2023-05-12T12:28:10.133Z,99095.38
2023-05-12T12:30:36.733Z,99087.53
2023-05-12T12:33:03.296Z,99084.88
2023-05-12T12:35:29.805Z,99090.72
2023-05-12T12:37:56.420Z,99084.09
2023-05-12T12:40:22.967Z,99088.88
2023-05-12T12:42:49.482Z,99105.13
2023-05-12T12:45:16.524Z,99093.41
2023-05-12T12:47:44.389Z,99101.81
2023-05-12T12:50:11.140Z,99118.38
2023-05-12T12:52:38.533Z,99124.44
2023-05-12T12:55:07.021Z,99104.25
2023-05-12T12:57:33.517Z,99109.16
2023-05-12T13:00:00.023Z,99115.00
2023-05-12T13:02:27.105Z,99115.59
2023-05-12T13:04:53.842Z,99117.47
2023-05-12T13:07:20.819Z,99117.75
2023-05-12T13:09:47.657Z,99122.63
2023-05-12T13:12:14.586Z,99134.56
2023-05-12T13:14:41.120Z,99123.75
2023-05-12T13:17:08.185Z,99120.13
2023-05-12T13:19:37.229Z,99118.50
2023-05-12T13:22:04.904Z,99111.66
2023-05-12T13:24:31.565Z,99107.56
2023-05-12T13:26:58.223Z,99105.75
2023-05-12T13:29:24.787Z,99107.28
2023-05-12T13:31:51.333Z,99115.75
2023-05-12T13:34:17.841Z,99110.78
2023-05-12T13:36:44.326Z,99112.38
2023-05-12T13:39:10.754Z,99108.78
2023-05-12T13:41:37.271Z,99106.16
2023-05-12T13:44:03.788Z,99106.38
2023-05-12T13:46:30.272Z,99101.84
2023-05-12T13:48:56.867Z,99108.72
2023-05-12T13:51:23.870Z,99110.16
2023-05-12T13:53:50.577Z,99102.66
2023-05-12T13:56:17.401Z,99097.16
2023-05-12T13:58:44.681Z,99104.03
2023-05-12T14:01:12.115Z,99093.84
2023-05-12T14:03:39.285Z,99104.75
2023-05-12T14:06:06.109Z,99098.50
2023-05-12T14:08:32.567Z,99100.16
2023-05-12T14:10:59.656Z,99101.69
2023-05-12T14:13:26.316Z,99104.81
2023-05-12T14:15:53.836Z,99101.44
2023-05-12T14:18:21.375Z,99113.34
2023-05-12T14:20:48.206Z,99102.19
2023-05-12T14:23:14.988Z,99101.59
2023-05-12T14:25:42.214Z,99110.78
2023-05-12T14:28:09.217Z,99102.13
2023-05-12T14:30:37.123Z,99108.94
2023-05-12T14:33:04.279Z,99104.13
2023-05-12T14:35:31.060Z,99112.03
2023-05-12T14:37:57.804Z,99098.56
2023-05-12T14:40:24.700Z,99104.06
2023-05-12T14:42:51.246Z,99103.03
2023-05-12T14:45:18.219Z,99108.81
2023-05-12T14:47:44.905Z,99100.94
2023-05-12T14:50:11.874Z,99099.44
2023-05-12T14:52:38.523Z,99100.88
2023-05-12T14:55:11.668Z,99101.22
2023-05-12T14:57:39.826Z,99104.72
2023-05-12T15:00:10.815Z,99101.41
2023-05-12T15:02:39.143Z,99097.06
2023-05-12T15:05:08.391Z,99103.69
2023-05-12T15:07:36.361Z,99107.09
2023-05-12T15:10:03.666Z,99108.09
2023-05-12T15:12:30.247Z,99106.31
2023-05-12T15:14:56.837Z,99103.97
2023-05-12T15:17:23.458Z,99116.59
2023-05-12T15:19:50.158Z,99109.69
2023-05-12T15:22:16.687Z,99114.78
2023-05-12T15:24:43.235Z,99103.78
2023-05-12T15:27:09.771Z,99111.72
2023-05-12T15:29:41.384Z,99112.25
2023-05-12T15:32:08.172Z,99118.81
2023-05-12T15:34:35.276Z,99115.59
2023-05-12T15:37:02.143Z,99118.72
2023-05-12T15:39:28.624Z,99117.97
2023-05-12T15:41:55.212Z,99117.63
2023-05-12T15:44:21.864Z,99124.13
2023-05-12T15:46:48.459Z,99135.81
2023-05-12T15:49:15.041Z,99170.13
2023-05-12T15:51:41.630Z,99187.78
2023-05-12T15:54:09.524Z,99187.75
2023-05-12T15:56:37.300Z,99185.09
2023-05-12T15:59:05.288Z,99190.63
2023-05-12T16:01:32.203Z,99189.28
2023-05-12T16:03:59.122Z,99183.59
2023-05-12T16:06:25.982Z,99189.38
2023-05-12T16:08:53.137Z,99192.44
2023-05-12T16:11:19.716Z,99199.22
2023-05-12T16:13:46.288Z,99207.66
2023-05-12T16:16:12.835Z,99209.63
2023-05-12T16:18:39.936Z,99204.78
2023-05-12T16:21:06.505Z,99210.06
2023-05-12T16:23:33.352Z,99199.44
2023-05-12T16:25:59.780Z,99195.28
2023-05-12T16:28:26.290Z,99191.78
2023-05-12T16:30:52.798Z,99183.63
2023-05-12T16:33:19.563Z,99186.59
2023-05-12T16:35:46.148Z,99190.50
2023-05-12T16:38:13.391Z,99187.44
2023-05-12T16:40:39.884Z,99189.03
2023-05-12T16:43:06.369Z,99184.28
2023-05-12T16:45:33.136Z,99178.31
2023-05-12T16:47:59.771Z,99188.09
2023-05-12T16:50:26.375Z,99192.13
2023-05-12T16:52:53.680Z,99189.09
2023-05-12T16:55:20.827Z,99201.00
2023-05-12T16:57:47.632Z,99187.75
2023-05-12T17:00:14.895Z,99196.41
2023-05-12T17:02:41.744Z,99199.41
2023-05-12T17:05:08.612Z,99189.84
2023-05-12T17:07:35.547Z,99188.56
2023-05-12T17:10:02.731Z,99182.53
2023-05-12T17:12:29.311Z,99165.53
2023-05-12T17:15:06.153Z,99160.47
2023-05-12T17:17:35.176Z,99170.31
2023-05-12T17:20:02.310Z,99164.28
2023-05-12T17:22:29.072Z,99157.13
2023-05-12T17:24:55.781Z,99160.91
2023-05-12T17:27:22.479Z,99177.00
2023-05-12T17:29:49.257Z,99177.19
2023-05-12T17:32:15.839Z,99173.84
2023-05-12T17:34:42.371Z,99182.59
2023-05-12T17:37:09.307Z,99188.63
2023-05-12T17:39:37.928Z,99203.03
2023-05-12T17:42:05.103Z,99207.47
2023-05-12T17:44:31.594Z,99206.84
2023-05-12T17:46:58.121Z,99197.00
2023-05-12T17:49:24.620Z,99191.50
2023-05-12T17:51:54.897Z,99195.50
2023-05-12T17:54:21.608Z,99190.47
2023-05-12T17:56:48.046Z,99197.28
2023-05-12T17:59:14.847Z,99192.91
2023-05-12T18:01:41.275Z,99203.03
2023-05-12T18:04:08.159Z,99200.34
2023-05-12T18:06:34.679Z,99205.00
2023-05-12T18:09:01.132Z,99204.78
2023-05-12T18:11:29.064Z,99219.09
2023-05-12T18:13:56.006Z,99213.78
2023-05-12T18:16:28.514Z,99218.16
2023-05-12T18:18:56.190Z,99213.56
2023-05-12T18:21:22.855Z,99219.09
2023-05-12T18:23:49.397Z,99201.53
2023-05-12T18:26:15.913Z,99209.97
2023-05-12T18:28:42.447Z,99204.22
2023-05-12T18:31:15.924Z,99215.34
2023-05-12T18:33:46.590Z,99208.66
2023-05-12T18:36:13.239Z,99211.16
2023-05-12T18:38:39.982Z,99210.81
2023-05-12T18:41:06.995Z,99203.22
2023-05-12T18:43:34.752Z,99208.19
2023-05-12T18:46:02.680Z,99213.34
2023-05-12T18:48:31.024Z,99217.63
2023-05-12T18:50:57.744Z,99217.97
2023-05-12T18:53:24.326Z,99221.22
2023-05-12T18:55:51.554Z,99212.66
2023-05-12T18:58:18.822Z,99219.84
2023-05-12T19:00:45.658Z,99228.00
2023-05-12T19:03:12.138Z,99232.91
2023-05-12T19:05:43.131Z,99242.97
2023-05-12T19:08:11.389Z,99245.69
2023-05-12T19:10:39.880Z,99244.41
2023-05-12T19:13:07.076Z,99245.09
2023-05-12T19:15:33.838Z,99256.91
2023-05-12T19:18:00.482Z,99262.44
2023-05-12T19:20:28.096Z,99268.91
2023-05-12T19:22:54.796Z,99268.81
2023-05-12T19:25:21.989Z,99280.75
2023-05-12T19:27:48.805Z,99286.88
2023-05-12T19:30:15.426Z,99283.09
2023-05-12T19:32:42.731Z,99293.91
2023-05-12T19:35:11.611Z,99291.34
2023-05-12T19:37:39.399Z,99293.47
2023-05-12T19:40:07.762Z,99294.59
2023-05-12T19:42:36.146Z,99293.50
2023-05-12T19:45:02.982Z,99298.00
2023-05-12T19:47:30.385Z,99301.78
2023-05-12T19:49:57.057Z,99309.72
2023-05-12T19:52:24.751Z,99311.63
2023-05-12T19:54:52.861Z,99311.75
2023-05-12T19:57:19.785Z,99304.66
2023-05-12T19:59:46.272Z,99308.31
2023-05-12T20:02:15.389Z,99309.28
2023-05-12T20:04:42.103Z,99311.47
2023-05-12T20:07:09.782Z,99316.34
2023-05-12T20:09:37.102Z,99311.75
2023-05-12T20:12:07.890Z,99313.75
2023-05-12T20:14:36.314Z,99311.91
2023-05-12T20:17:05.716Z,99299.19
2023-05-12T20:19:33.676Z,99308.44
2023-05-12T20:22:00.415Z,99312.13
2023-05-12T20:24:27.654Z,99311.72
2023-05-12T20:26:54.819Z,99311.19
2023-05-12T20:29:21.483Z,99313.13
2023-05-12T20:31:51.244Z,99314.47
2023-05-12T20:34:19.354Z,99308.38
2023-05-12T20:36:46.864Z,99312.75
2023-05-12T20:39:15.073Z,99330.22
2023-05-12T20:41:43.580Z,99322.94
2023-05-12T20:44:10.865Z,99321.31
2023-05-12T20:46:38.867Z,99323.41
2023-05-12T20:49:06.215Z,99325.88
2023-05-12T20:51:33.291Z,99325.69
2023-05-12T20:53:59.769Z,99323.44
2023-05-12T20:56:27.066Z,99326.91
2023-05-12T20:58:53.817Z,99328.22
2023-05-12T21:01:20.523Z,99322.31
2023-05-12T21:03:47.236Z,99326.63
2023-05-12T21:06:13.962Z,99327.03
2023-05-12T21:08:40.450Z,99326.75
2023-05-12T21:11:17.175Z,99332.56
2023-05-12T21:13:47.014Z,99330.47
2023-05-12T21:16:14.706Z,99329.38
2023-05-12T21:18:41.466Z,99333.22
2023-05-12T21:21:08.164Z,99335.06
2023-05-12T21:23:37.610Z,99335.78
2023-05-12T21:26:05.355Z,99346.69
2023-05-12T21:28:32.002Z,99330.03
2023-05-12T21:30:58.518Z,99330.88
2023-05-12T21:33:25.011Z,99322.06
2023-05-12T21:35:51.524Z,99330.13
2023-05-12T21:38:18.063Z,99329.81
2023-05-12T21:40:51.786Z,99331.81
2023-05-12T21:43:18.654Z,99332.97
2023-05-12T21:45:45.229Z,99340.53
2023-05-12T21:48:12.558Z,99345.88
2023-05-12T21:50:39.123Z,99345.81
2023-05-12T21:53:05.562Z,99350.16
2023-05-12T21:55:32.574Z,99344.03
2023-05-12T21:57:59.382Z,99343.53
2023-05-12T22:00:26.209Z,99349.13
2023-05-12T22:02:52.777Z,99351.97
2023-05-12T22:05:19.606Z,99347.81
2023-05-12T22:07:46.438Z,99352.16
2023-05-12T22:10:13.062Z,99344.22
2023-05-12T22:12:40.532Z,99345.00
2023-05-12T22:15:07.848Z,99340.81
2023-05-12T22:17:34.447Z,99341.72
2023-05-12T22:20:00.994Z,99348.13
2023-05-12T22:22:27.531Z,99343.16
2023-05-12T22:24:54.067Z,99347.84
2023-05-12T22:27:22.316Z,99342.00
2023-05-12T22:29:49.619Z,99345.72
2023-05-12T22:32:16.191Z,99354.50
2023-05-12T22:34:42.639Z,99354.34
2023-05-12T22:37:09.969Z,99357.59
2023-05-12T22:39:36.488Z,99354.88
2023-05-12T22:42:03.140Z,99357.97
2023-05-12T22:44:30.022Z,99362.13
2023-05-12T22:46:56.812Z,99364.66
2023-05-12T22:49:24.083Z,99365.06
2023-05-12T22:51:50.652Z,99368.53
2023-05-12T22:54:17.186Z,99365.31
2023-05-12T22:56:44.697Z,99370.50
2023-05-12T22:59:11.382Z,99363.91
2023-05-12T23:01:37.861Z,99364.69
2023-05-12T23:04:04.488Z,99362.69
2023-05-12T23:06:31.151Z,99360.56
2023-05-12T23:08:57.782Z,99356.91
2023-05-12T23:11:24.453Z,99367.28
2023-05-12T23:13:50.947Z,99361.25
2023-05-12T23:16:17.507Z,99361.63
2023-05-12T23:18:44.120Z,99360.94
2023-05-12T23:21:10.776Z,99362.88
2023-05-12T23:23:37.251Z,99358.06
2023-05-12T23:26:03.682Z,99355.44
2023-05-12T23:28:30.237Z,99363.56
2023-05-12T23:30:56.790Z,99361.25
2023-05-12T23:33:23.470Z,99362.34
2023-05-12T23:35:49.978Z,99352.88
2023-05-12T23:38:17.428Z,99346.03
2023-05-12T23:40:43.992Z,99353.38
2023-05-12T23:43:10.556Z,99355.53
2023-05-12T23:45:37.049Z,99352.69
2023-05-12T23:48:03.919Z,99350.19
2023-05-12T23:50:30.508Z,99347.72
2023-05-12T23:52:57.008Z,99354.72
2023-05-12T23:55:23.589Z,99351.03
2023-05-12T23:57:50.269Z,99346.91
